Time;durP1;ratioP1;P1;durP2;ratioP2;P2;SDS_P1;SDS_P2;PMS_P1;PMS_P2;Temp;Humidity;BMP_temperature;BMP_pressure;BME280_temperature;BME280_humidity;BME280_pressure;Samples;Min_cycle;Max_cycle;Signal;HPM_P1;HPM_P2
2021/07/20 00:01:41;;;;;;;25.42;19.20;;;;;;;;;;5075931;28;20583;-87
2021/07/20 00:04:06;;;;;;;25.83;19.13;;;;;;;;;;5074003;28;20036;-86
2021/07/20 00:06:31;;;;;;;21.37;18.90;;;;;;;;;;5082187;28;20085;-87
2021/07/20 00:08:57;;;;;;;21.33;19.05;;;;;;;;;;5075237;28;20330;-87
2021/07/20 00:11:22;;;;;;;25.02;19.63;;;;;;;;;;5094091;28;20433;-85
2021/07/20 00:13:48;;;;;;;21.92;19.60;;;;;;;;;;5094159;28;20031;-86
2021/07/20 00:16:13;;;;;;;21.90;18.55;;;;;;;;;;5092437;28;20020;-87
2021/07/20 00:18:41;;;;;;;23.15;19.70;;;;;;;;;;5071882;28;20028;-86
2021/07/20 00:21:07;;;;;;;23.35;19.63;;;;;;;;;;5054020;28;20037;-86
2021/07/20 00:23:33;;;;;;;23.48;19.48;;;;;;;;;;5067291;28;20016;-85
2021/07/20 00:25:58;;;;;;;23.48;19.83;;;;;;;;;;5069481;28;20013;-86
2021/07/20 00:28:23;;;;;;;22.98;19.75;;;;;;;;;;5068356;28;20048;-87
2021/07/20 00:30:49;;;;;;;22.92;20.35;;;;;;;;;;5073299;28;20066;-86
2021/07/20 00:33:14;;;;;;;23.23;19.73;;;;;;;;;;5073306;28;20016;-87
2021/07/20 00:35:40;;;;;;;23.23;19.60;;;;;;;;;;5083095;28;20024;-86
2021/07/20 00:38:05;;;;;;;24.73;18.98;;;;;;;;;;5079338;28;20088;-87
2021/07/20 00:40:31;;;;;;;21.85;19.58;;;;;;;;;;5067092;28;20024;-87
2021/07/20 00:43:02;;;;;;;22.52;18.70;;;;;;;;;;5071706;28;20087;-85
2021/07/20 00:45:27;;;;;;;21.85;19.23;;;;;;;;;;5069762;28;20013;-86
2021/07/20 00:47:53;;;;;;;24.30;19.13;;;;;;;;;;5068644;28;20460;-85
2021/07/20 00:50:23;;;;;;;22.40;19.48;;;;;;;;;;5068985;28;20035;-86
2021/07/20 00:52:48;;;;;;;23.48;19.33;;;;;;;;;;5065330;28;20104;-86
2021/07/20 00:55:18;;;;;;;23.05;19.25;;;;;;;;;;5059089;28;20024;-86
2021/07/20 00:57:45;;;;;;;20.83;18.60;;;;;;;;;;5068120;28;20460;-86
2021/07/20 01:00:12;;;;;;;22.58;19.08;;;;;;;;;;5055402;28;20430;-86
2021/07/20 01:02:38;;;;;;;23.55;20.17;;;;;;;;;;5079916;28;20040;-85
2021/07/20 01:05:12;;;;;;;24.27;19.92;;;;;;;;;;5073124;28;20448;-86
2021/07/20 01:07:38;;;;;;;22.30;19.23;;;;;;;;;;5086999;28;20020;-90
2021/07/20 01:10:09;;;;;;;24.33;20.00;;;;;;;;;;5093668;28;20019;-82
2021/07/20 01:12:37;;;;;;;23.80;19.83;;;;;;;;;;5072506;28;20021;-84
2021/07/20 01:15:05;;;;;;;25.75;20.48;;;;;;;;;;5053386;28;20017;-84
2021/07/20 01:17:31;;;;;;;25.10;20.13;;;;;;;;;;5053596;28;20017;-85
2021/07/20 01:19:56;;;;;;;24.27;19.33;;;;;;;;;;5061060;28;20573;-85
2021/07/20 01:22:31;;;;;;;22.55;18.80;;;;;;;;;;5063687;28;20051;-85
2021/07/20 01:24:59;;;;;;;22.70;20.13;;;;;;;;;;5071515;28;20078;-85
2021/07/20 01:27:24;;;;;;;23.77;19.65;;;;;;;;;;5067372;28;20025;-85
2021/07/20 01:29:49;;;;;;;24.90;20.67;;;;;;;;;;5057412;28;20326;-85
2021/07/20 01:32:20;;;;;;;21.83;19.52;;;;;;;;;;5072495;28;20522;-85
2021/07/20 01:34:46;;;;;;;25.55;19.45;;;;;;;;;;5072282;28;20032;-84
2021/07/20 01:37:12;;;;;;;24.50;19.35;;;;;;;;;;5083401;28;20016;-85
2021/07/20 01:39:41;;;;;;;23.77;21.35;;;;;;;;;;5077881;28;20375;-84
2021/07/20 01:42:08;;;;;;;22.95;20.50;;;;;;;;;;5080182;28;20070;-85
2021/07/20 01:44:36;;;;;;;23.17;19.75;;;;;;;;;;5059472;28;20033;-85
2021/07/20 01:47:01;;;;;;;24.40;20.65;;;;;;;;;;5056456;28;20028;-85
2021/07/20 01:49:27;;;;;;;26.42;20.17;;;;;;;;;;5067079;28;20020;-84
2021/07/20 01:51:55;;;;;;;26.92;21.17;;;;;;;;;;5076736;28;20437;-85
2021/07/20 01:54:21;;;;;;;24.55;20.85;;;;;;;;;;5076951;28;20149;-85
2021/07/20 01:56:47;;;;;;;25.25;20.95;;;;;;;;;;5076923;28;20058;-85
2021/07/20 01:59:12;;;;;;;25.05;21.10;;;;;;;;;;5072762;28;20402;-85
2021/07/20 02:01:45;;;;;;;24.55;20.52;;;;;;;;;;5076384;28;20101;-84
2021/07/20 02:04:21;;;;;;;26.58;21.13;;;;;;;;;;5076731;28;20033;-85
2021/07/20 02:09:31;;;;;;;23.35;20.85;;;;;;;;;;5056348;28;19924;-86
2021/07/20 02:12:00;;;;;;;28.25;21.33;;;;;;;;;;5055989;28;20025;-86
2021/07/20 02:14:31;;;;;;;24.83;20.98;;;;;;;;;;5038782;28;20446;-85
2021/07/20 02:16:56;;;;;;;26.80;21.50;;;;;;;;;;5080319;28;20387;-85
2021/07/20 02:19:21;;;;;;;25.52;21.35;;;;;;;;;;5096233;28;20016;-85
2021/07/20 02:21:52;;;;;;;23.20;20.70;;;;;;;;;;5069282;28;20008;-85
2021/07/20 02:24:23;;;;;;;24.10;21.30;;;;;;;;;;5056072;28;20294;-85
2021/07/20 02:26:48;;;;;;;28.25;21.85;;;;;;;;;;5055622;28;20021;-85
2021/07/20 02:29:15;;;;;;;26.88;20.90;;;;;;;;;;5055986;28;20055;-85
2021/07/20 02:31:43;;;;;;;26.90;20.75;;;;;;;;;;5055935;28;20021;-84
2021/07/20 02:34:09;;;;;;;26.55;20.60;;;;;;;;;;5056020;28;20021;-84
2021/07/20 02:36:38;;;;;;;25.08;20.50;;;;;;;;;;5055500;28;20346;-84
2021/07/20 02:39:06;;;;;;;21.98;19.50;;;;;;;;;;5075920;28;20019;-84
2021/07/20 02:41:32;;;;;;;23.55;20.92;;;;;;;;;;5075890;28;20031;-84
2021/07/20 02:43:57;;;;;;;24.90;20.85;;;;;;;;;;5075085;28;20349;-84
2021/07/20 02:46:25;;;;;;;26.02;20.85;;;;;;;;;;5075614;28;20017;-84
2021/07/20 02:48:53;;;;;;;23.83;20.15;;;;;;;;;;5068966;28;20086;-84
2021/07/20 02:51:19;;;;;;;25.50;19.85;;;;;;;;;;5074836;28;20099;-84
2021/07/20 02:53:45;;;;;;;26.42;20.40;;;;;;;;;;5055966;28;20048;-84
2021/07/20 02:56:11;;;;;;;23.42;20.65;;;;;;;;;;5055255;28;20055;-85
2021/07/20 02:58:39;;;;;;;23.30;19.75;;;;;;;;;;5055623;28;20343;-84
2021/07/20 03:01:08;;;;;;;25.88;21.58;;;;;;;;;;5068247;28;20020;-84
2021/07/20 03:03:34;;;;;;;25.77;21.85;;;;;;;;;;5075203;28;20044;-85
2021/07/20 03:06:01;;;;;;;23.80;20.85;;;;;;;;;;5075210;28;20472;-84
2021/07/20 03:08:28;;;;;;;28.05;20.38;;;;;;;;;;5074806;28;20025;-84
2021/07/20 03:10:55;;;;;;;26.10;21.48;;;;;;;;;;5057690;28;20021;-84
2021/07/20 03:13:22;;;;;;;24.30;20.52;;;;;;;;;;5075134;28;20021;-84
2021/07/20 03:15:47;;;;;;;24.45;19.33;;;;;;;;;;5057666;28;20017;-85
2021/07/20 03:18:12;;;;;;;24.07;19.77;;;;;;;;;;5077026;28;20046;-84
2021/07/20 03:20:42;;;;;;;23.58;20.60;;;;;;;;;;5095315;28;20602;-85
2021/07/20 03:23:10;;;;;;;21.50;18.85;;;;;;;;;;5095051;28;20150;-85
2021/07/20 03:25:36;;;;;;;25.10;20.23;;;;;;;;;;5094556;28;20031;-84
2021/07/20 03:28:01;;;;;;;24.13;19.77;;;;;;;;;;5077412;28;20357;-85
2021/07/20 03:30:29;;;;;;;24.50;19.98;;;;;;;;;;5087428;28;20462;-84
2021/07/20 03:32:54;;;;;;;23.95;19.73;;;;;;;;;;5054742;28;20100;-84
2021/07/20 03:35:20;;;;;;;22.98;19.75;;;;;;;;;;5057710;28;20120;-84
2021/07/20 03:37:48;;;;;;;27.00;20.50;;;;;;;;;;5074615;28;20024;-85
2021/07/20 03:40:14;;;;;;;22.52;20.17;;;;;;;;;;5072733;28;20032;-84
2021/07/20 03:42:40;;;;;;;21.90;19.40;;;;;;;;;;5054326;28;20020;-84
2021/07/20 03:45:09;;;;;;;24.25;19.52;;;;;;;;;;5054263;28;20100;-84
2021/07/20 03:47:41;;;;;;;22.33;19.75;;;;;;;;;;5054617;28;20067;-84
2021/07/20 03:50:08;;;;;;;22.08;19.77;;;;;;;;;;5054181;28;20025;-84
2021/07/20 03:52:33;;;;;;;24.20;19.83;;;;;;;;;;5037538;28;20414;-84
2021/07/20 03:54:59;;;;;;;23.00;19.30;;;;;;;;;;5062529;28;20017;-84
2021/07/20 03:57:27;;;;;;;24.67;19.80;;;;;;;;;;5094533;28;20017;-84
2021/07/20 03:59:55;;;;;;;30.17;20.88;;;;;;;;;;5094572;28;20035;-84
2021/07/20 04:02:25;;;;;;;25.08;20.10;;;;;;;;;;5093920;28;20373;-84
2021/07/20 04:04:54;;;;;;;23.85;20.58;;;;;;;;;;5078895;28;20473;-84
2021/07/20 04:07:19;;;;;;;25.33;19.33;;;;;;;;;;5065149;28;20020;-84
2021/07/20 04:09:48;;;;;;;24.13;19.58;;;;;;;;;;5067253;28;20102;-85
2021/07/20 04:12:16;;;;;;;21.30;18.50;;;;;;;;;;5053801;28;20024;-85
2021/07/20 04:14:44;;;;;;;24.67;19.63;;;;;;;;;;5053126;28;20469;-85
2021/07/20 04:17:13;;;;;;;25.60;20.70;;;;;;;;;;5052989;28;20039;-84
2021/07/20 04:19:39;;;;;;;23.83;19.70;;;;;;;;;;5053577;28;20341;-84
2021/07/20 04:22:05;;;;;;;21.75;19.00;;;;;;;;;;5061250;28;20452;-84
2021/07/20 04:24:30;;;;;;;21.65;18.92;;;;;;;;;;5073830;28;20020;-85
2021/07/20 04:26:58;;;;;;;25.75;18.90;;;;;;;;;;5056322;28;20476;-84
2021/07/20 04:29:29;;;;;;;22.92;18.25;;;;;;;;;;5056277;28;20024;-84
2021/07/20 04:31:58;;;;;;;22.15;19.23;;;;;;;;;;5057237;28;20466;-84
2021/07/20 04:34:24;;;;;;;23.40;20.30;;;;;;;;;;5053369;28;20072;-84
2021/07/20 04:36:49;;;;;;;22.80;19.08;;;;;;;;;;5053123;28;20437;-84
2021/07/20 04:39:14;;;;;;;22.63;19.38;;;;;;;;;;5053490;28;20043;-84
2021/07/20 04:41:42;;;;;;;23.83;19.38;;;;;;;;;;5053374;28;20448;-84
2021/07/20 04:44:10;;;;;;;20.83;17.90;;;;;;;;;;5053884;28;20060;-83
2021/07/20 04:46:36;;;;;;;22.25;18.75;;;;;;;;;;5053088;28;20465;-84
2021/07/20 04:49:02;;;;;;;20.70;17.85;;;;;;;;;;5036048;28;20033;-84
2021/07/20 04:51:30;;;;;;;21.92;19.30;;;;;;;;;;5039591;28;20104;-84
2021/07/20 04:53:58;;;;;;;29.25;19.83;;;;;;;;;;5062000;28;20040;-83
2021/07/20 04:56:25;;;;;;;22.48;18.02;;;;;;;;;;5052664;28;20091;-83
2021/07/20 04:58:50;;;;;;;23.30;18.92;;;;;;;;;;5052917;28;20021;-83
2021/07/20 05:01:16;;;;;;;21.53;18.93;;;;;;;;;;5067440;28;20036;-84
2021/07/20 05:03:44;;;;;;;26.63;19.85;;;;;;;;;;5053266;28;20290;-84
2021/07/20 05:06:13;;;;;;;22.75;18.13;;;;;;;;;;5040822;28;20557;-84
2021/07/20 05:08:39;;;;;;;23.85;18.52;;;;;;;;;;5065515;28;20075;-89
2021/07/20 05:11:05;;;;;;;23.55;18.20;;;;;;;;;;5073505;28;20039;-88
2021/07/20 05:13:31;;;;;;;23.27;18.17;;;;;;;;;;5054276;28;20103;-88
2021/07/20 05:15:57;;;;;;;24.08;18.27;;;;;;;;;;5058227;28;20084;-89
2021/07/20 05:18:22;;;;;;;25.20;18.27;;;;;;;;;;5072983;28;20020;-89
2021/07/20 05:20:49;;;;;;;25.17;18.77;;;;;;;;;;5078879;28;20026;-88
2021/07/20 05:23:18;;;;;;;26.13;18.08;;;;;;;;;;5079379;28;20025;-84
2021/07/20 05:25:45;;;;;;;23.88;18.40;;;;;;;;;;5077327;28;20020;-84
2021/07/20 05:28:11;;;;;;;22.80;18.08;;;;;;;;;;5077044;28;20369;-84
2021/07/20 05:30:36;;;;;;;23.25;18.42;;;;;;;;;;5076998;28;20024;-89
2021/07/20 05:33:02;;;;;;;27.40;17.85;;;;;;;;;;5097462;28;20028;-89
2021/07/20 05:35:29;;;;;;;24.90;17.55;;;;;;;;;;5096638;28;20020;-90
2021/07/20 05:37:57;;;;;;;26.50;18.88;;;;;;;;;;5097518;28;20429;-90
2021/07/20 05:40:23;;;;;;;21.67;16.58;;;;;;;;;;5097441;28;20353;-90
2021/07/20 05:42:48;;;;;;;19.52;16.55;;;;;;;;;;5097408;28;20016;-90
2021/07/20 05:45:14;;;;;;;30.20;17.88;;;;;;;;;;5058731;28;20134;-93
2021/07/20 05:47:43;;;;;;;23.15;17.65;;;;;;;;;;5072476;28;20027;-90
2021/07/20 05:50:11;;;;;;;27.95;18.10;;;;;;;;;;5059373;28;20032;-77
2021/07/20 05:52:39;;;;;;;24.70;17.85;;;;;;;;;;5067126;28;20021;-76
2021/07/20 05:55:06;;;;;;;23.88;17.05;;;;;;;;;;5067681;28;20021;-75
2021/07/20 05:57:34;;;;;;;23.75;17.15;;;;;;;;;;5081218;28;20028;-76
2021/07/20 05:59:59;;;;;;;20.55;16.45;;;;;;;;;;5085959;28;20017;-75
2021/07/20 06:02:26;;;;;;;21.75;16.88;;;;;;;;;;5085686;28;20036;-75
2021/07/20 06:04:54;;;;;;;25.67;18.23;;;;;;;;;;5086297;28;20085;-74
2021/07/20 06:07:24;;;;;;;20.50;16.75;;;;;;;;;;5046206;28;20044;-73
2021/07/20 06:09:50;;;;;;;21.70;16.83;;;;;;;;;;5075311;28;20020;-77
2021/07/20 06:12:16;;;;;;;24.65;17.52;;;;;;;;;;5082439;28;20024;-76
2021/07/20 06:14:41;;;;;;;23.25;18.42;;;;;;;;;;5082080;28;20028;-75
2021/07/20 06:17:07;;;;;;;23.67;18.10;;;;;;;;;;5078360;28;20025;-75
2021/07/20 06:19:33;;;;;;;26.25;18.52;;;;;;;;;;5055958;28;20021;-75
2021/07/20 06:22:01;;;;;;;27.98;18.00;;;;;;;;;;5056095;28;20031;-75
2021/07/20 06:24:26;;;;;;;28.08;16.33;;;;;;;;;;5058626;28;20043;-75
2021/07/20 06:26:56;;;;;;;30.52;17.60;;;;;;;;;;5066345;28;20100;-75
2021/07/20 06:29:25;;;;;;;24.30;18.05;;;;;;;;;;5057307;28;20016;-75
2021/07/20 06:31:51;;;;;;;25.23;18.52;;;;;;;;;;5055826;28;20361;-75
2021/07/20 06:34:16;;;;;;;22.42;17.73;;;;;;;;;;5055729;28;20016;-75
2021/07/20 06:36:45;;;;;;;27.88;18.48;;;;;;;;;;5049873;28;20457;-75
2021/07/20 06:39:12;;;;;;;25.15;17.77;;;;;;;;;;5058691;28;20016;-75
2021/07/20 06:41:38;;;;;;;24.65;17.20;;;;;;;;;;5055072;28;20017;-82
2021/07/20 06:44:05;;;;;;;29.65;17.08;;;;;;;;;;5056727;28;20039;-73
2021/07/20 06:46:31;;;;;;;26.23;18.50;;;;;;;;;;5066475;28;20448;-73
2021/07/20 06:48:57;;;;;;;23.60;18.80;;;;;;;;;;5085983;28;20020;-73
2021/07/20 06:51:23;;;;;;;25.13;18.52;;;;;;;;;;5070869;28;20027;-73
2021/07/20 06:53:48;;;;;;;28.55;18.23;;;;;;;;;;5059890;28;20027;-73
2021/07/20 06:56:18;;;;;;;23.92;19.42;;;;;;;;;;5076939;28;20017;-74
2021/07/20 06:58:44;;;;;;;26.70;18.27;;;;;;;;;;5073953;28;20016;-73
2021/07/20 07:01:11;;;;;;;25.10;18.08;;;;;;;;;;5089045;28;20031;-73
2021/07/20 07:03:39;;;;;;;26.73;17.77;;;;;;;;;;5087431;28;20257;-73
2021/07/20 07:06:04;;;;;;;24.45;18.02;;;;;;;;;;5082755;28;20444;-73
2021/07/20 07:08:30;;;;;;;25.48;17.77;;;;;;;;;;5082969;28;20023;-73
2021/07/20 07:10:58;;;;;;;24.33;18.45;;;;;;;;;;5053945;28;20017;-73
2021/07/20 07:13:27;;;;;;;23.75;17.52;;;;;;;;;;5057703;28;20032;-74
2021/07/20 07:15:55;;;;;;;25.08;18.42;;;;;;;;;;5075874;28;20025;-74
2021/07/20 07:18:21;;;;;;;28.83;18.33;;;;;;;;;;5065524;28;20021;-74
2021/07/20 07:20:49;;;;;;;31.38;20.73;;;;;;;;;;5065640;28;20365;-74
2021/07/20 07:23:17;;;;;;;26.35;18.20;;;;;;;;;;5072044;28;20081;-74
2021/07/20 07:25:45;;;;;;;29.35;19.42;;;;;;;;;;5062508;28;20509;-74
2021/07/20 07:28:10;;;;;;;29.17;18.92;;;;;;;;;;5073129;28;20105;-74
2021/07/20 07:30:36;;;;;;;27.35;18.25;;;;;;;;;;5064654;28;20112;-74
2021/07/20 07:33:01;;;;;;;28.85;18.02;;;;;;;;;;5067770;28;20089;-75
2021/07/20 07:35:30;;;;;;;23.38;17.50;;;;;;;;;;5067399;28;20051;-75
2021/07/20 07:37:56;;;;;;;29.52;18.50;;;;;;;;;;5069980;28;20031;-75
2021/07/20 07:40:26;;;;;;;23.92;17.73;;;;;;;;;;5070283;28;20024;-75
2021/07/20 07:42:52;;;;;;;24.70;17.92;;;;;;;;;;5081671;28;20016;-75
2021/07/20 07:45:17;;;;;;;29.73;18.23;;;;;;;;;;5078312;28;20024;-75
2021/07/20 07:47:47;;;;;;;24.50;16.83;;;;;;;;;;5083149;28;20067;-74
2021/07/20 07:50:16;;;;;;;29.52;19.30;;;;;;;;;;5071630;28;20016;-74
2021/07/20 07:52:41;;;;;;;29.73;18.83;;;;;;;;;;5073792;28;20029;-75
2021/07/20 07:55:07;;;;;;;25.27;18.25;;;;;;;;;;5073693;28;20460;-74
2021/07/20 07:57:33;;;;;;;24.73;18.23;;;;;;;;;;5068355;28;20031;-75
2021/07/20 07:59:59;;;;;;;27.48;18.42;;;;;;;;;;5081581;28;20020;-75
2021/07/20 08:02:30;;;;;;;29.70;17.98;;;;;;;;;;5062273;28;20037;-74
2021/07/20 08:04:56;;;;;;;27.60;17.25;;;;;;;;;;5083865;28;20016;-74
2021/07/20 08:07:21;;;;;;;29.23;17.50;;;;;;;;;;5071089;28;20027;-74
2021/07/20 08:09:47;;;;;;;30.13;17.73;;;;;;;;;;5075868;28;20352;-74
2021/07/20 08:12:13;;;;;;;28.08;18.80;;;;;;;;;;5058948;28;20024;-74
2021/07/20 08:14:39;;;;;;;21.83;17.80;;;;;;;;;;5076273;28;20020;-74
2021/07/20 08:17:05;;;;;;;25.13;17.27;;;;;;;;;;5065361;28;20035;-74
2021/07/20 08:19:31;;;;;;;28.67;17.35;;;;;;;;;;5059289;28;20429;-74
2021/07/20 08:22:01;;;;;;;25.95;17.58;;;;;;;;;;5065549;28;20017;-74
2021/07/20 08:24:34;;;;;;;21.55;16.88;;;;;;;;;;5064062;28;20441;-75
2021/07/20 08:27:06;;;;;;;22.88;15.95;;;;;;;;;;5074280;28;20036;-74
2021/07/20 08:29:35;;;;;;;22.95;16.13;;;;;;;;;;5066367;28;20483;-74
2021/07/20 08:32:04;;;;;;;25.00;17.38;;;;;;;;;;5070527;28;20055;-74
2021/07/20 08:34:34;;;;;;;23.50;17.83;;;;;;;;;;5071855;28;20020;-74
2021/07/20 08:37:02;;;;;;;26.05;17.73;;;;;;;;;;5050459;28;20027;-74
2021/07/20 08:39:31;;;;;;;28.13;17.58;;;;;;;;;;5081997;28;20057;-74
2021/07/20 08:42:02;;;;;;;24.13;17.17;;;;;;;;;;5057068;28;20132;-74
2021/07/20 08:44:35;;;;;;;23.10;15.30;;;;;;;;;;5062168;28;20021;-74
2021/07/20 08:47:08;;;;;;;17.02;13.18;;;;;;;;;;5058354;28;20028;-74
2021/07/20 08:49:51;;;;;;;21.20;13.95;;;;;;;;;;5078603;28;20023;-74
2021/07/20 08:52:39;;;;;;;18.10;13.50;;;;;;;;;;5074529;28;20364;-74
2021/07/20 08:55:09;;;;;;;18.42;12.55;;;;;;;;;;5044082;28;20397;-74
2021/07/20 08:57:36;;;;;;;16.10;12.13;;;;;;;;;;5069369;28;20635;-73
2021/07/20 09:00:06;;;;;;;17.08;11.75;;;;;;;;;;5071959;28;20020;-73
2021/07/20 09:02:38;;;;;;;22.90;13.73;;;;;;;;;;5072730;28;20094;-74
2021/07/20 09:05:03;;;;;;;22.73;14.50;;;;;;;;;;5085260;28;20027;-74
2021/07/20 09:07:34;;;;;;;21.50;14.33;;;;;;;;;;5058117;28;20021;-74
2021/07/20 09:10:01;;;;;;;14.00;10.85;;;;;;;;;;5067134;28;20036;-74
2021/07/20 09:12:30;;;;;;;10.77;8.77;;;;;;;;;;5085172;28;20507;-73
2021/07/20 09:15:25;;;;;;;12.32;8.73;;;;;;;;;;5068428;28;20016;-73
2021/07/20 09:17:56;;;;;;;13.73;8.38;;;;;;;;;;5050508;28;20029;-73
2021/07/20 09:20:23;;;;;;;15.70;9.00;;;;;;;;;;5062859;28;20340;-73
2021/07/20 09:22:54;;;;;;;11.73;9.38;;;;;;;;;;5064848;28;20024;-73
2021/07/20 09:25:25;;;;;;;13.50;9.57;;;;;;;;;;5066487;28;20016;-73
2021/07/20 09:27:56;;;;;;;14.48;9.90;;;;;;;;;;5053016;28;20396;-73
2021/07/20 09:30:25;;;;;;;14.40;9.98;;;;;;;;;;5083498;28;20048;-73
2021/07/20 09:32:51;;;;;;;14.68;10.40;;;;;;;;;;5072855;28;20444;-73
2021/07/20 09:35:34;;;;;;;12.20;9.85;;;;;;;;;;5072359;28;20114;-73
2021/07/20 09:38:07;;;;;;;18.70;10.65;;;;;;;;;;5072898;28;20008;-73
2021/07/20 09:40:32;;;;;;;16.50;10.63;;;;;;;;;;5073034;28;20209;-73
2021/07/20 09:42:57;;;;;;;14.70;9.60;;;;;;;;;;5090797;28;20062;-73
2021/07/20 09:45:28;;;;;;;14.57;10.83;;;;;;;;;;5057828;28;20089;-73
2021/07/20 09:48:01;;;;;;;18.77;10.52;;;;;;;;;;5072191;28;20103;-73
2021/07/20 09:50:28;;;;;;;11.70;9.95;;;;;;;;;;5044593;28;20336;-73
2021/07/20 09:53:19;;;;;;;14.68;10.32;;;;;;;;;;5083285;28;20020;-73
2021/07/20 09:56:02;;;;;;;14.73;10.30;;;;;;;;;;5075704;28;20056;-73
2021/07/20 09:58:29;;;;;;;16.13;11.02;;;;;;;;;;5072799;28;20017;-73
2021/07/20 10:01:32;;;;;;;11.98;10.20;;;;;;;;;;5062345;28;20020;-74
2021/07/20 10:04:11;;;;;;;17.50;11.27;;;;;;;;;;4975456;28;20046;-73
2021/07/20 10:06:42;;;;;;;17.60;12.02;;;;;;;;;;5044672;28;20037;-74
2021/07/20 10:09:26;;;;;;;15.35;11.02;;;;;;;;;;5067095;28;20016;-73
2021/07/20 10:11:58;;;;;;;18.95;10.35;;;;;;;;;;5096718;28;20012;-73
2021/07/20 10:14:23;;;;;;;13.32;10.52;;;;;;;;;;5081871;28;20040;-73
2021/07/20 10:16:52;;;;;;;15.30;10.90;;;;;;;;;;5083745;28;20013;-73
2021/07/20 10:19:22;;;;;;;14.40;10.32;;;;;;;;;;5080723;28;20258;-73
2021/07/20 10:21:52;;;;;;;13.25;10.57;;;;;;;;;;5079190;28;20017;-74
2021/07/20 10:24:24;;;;;;;14.88;10.68;;;;;;;;;;5064491;28;20100;-73
2021/07/20 10:27:04;;;;;;;15.00;11.00;;;;;;;;;;5086711;28;20013;-75
2021/07/20 10:29:35;;;;;;;12.68;10.20;;;;;;;;;;5080988;28;20020;-75
2021/07/20 10:32:16;;;;;;;13.57;9.80;;;;;;;;;;5079976;28;20032;-76
2021/07/20 10:34:45;;;;;;;13.82;10.10;;;;;;;;;;5063649;28;20048;-75
2021/07/20 10:37:16;;;;;;;15.43;10.70;;;;;;;;;;5076913;28;20012;-76
2021/07/20 10:40:02;;;;;;;16.02;10.27;;;;;;;;;;5082764;28;20047;-76
2021/07/20 10:42:34;;;;;;;12.48;10.20;;;;;;;;;;5085528;28;20071;-76
2021/07/20 10:45:18;;;;;;;14.32;10.52;;;;;;;;;;5076161;28;20112;-76
2021/07/20 10:47:49;;;;;;;17.40;11.20;;;;;;;;;;5084213;28;20091;-76
2021/07/20 10:50:37;;;;;;;14.70;10.77;;;;;;;;;;5080209;28;20031;-75
2021/07/20 10:53:21;;;;;;;14.00;11.00;;;;;;;;;;5070411;28;20408;-76
2021/07/20 10:55:53;;;;;;;13.90;10.25;;;;;;;;;;5078059;28;20030;-76
2021/07/20 10:58:43;;;;;;;13.93;9.55;;;;;;;;;;5090715;28;20093;-75
2021/07/20 11:01:12;;;;;;;11.43;9.07;;;;;;;;;;5087191;28;20020;-76
2021/07/20 11:03:56;;;;;;;13.73;9.70;;;;;;;;;;5072397;28;20041;-75
2021/07/20 11:06:24;;;;;;;15.57;9.77;;;;;;;;;;5066576;28;20045;-76
2021/07/20 11:08:51;;;;;;;12.18;10.10;;;;;;;;;;5073961;28;20012;-76
2021/07/20 11:11:22;;;;;;;12.90;9.60;;;;;;;;;;5075016;28;20020;-76
2021/07/20 11:13:51;;;;;;;11.32;9.45;;;;;;;;;;5083683;28;20144;-76
2021/07/20 11:16:19;;;;;;;12.85;8.40;;;;;;;;;;5080920;28;20027;-76
2021/07/20 11:18:48;;;;;;;10.63;8.60;;;;;;;;;;5073965;28;20077;-76
2021/07/20 11:21:15;;;;;;;13.25;7.93;;;;;;;;;;5083296;28;20352;-76
2021/07/20 11:23:43;;;;;;;13.68;8.15;;;;;;;;;;5079487;28;20024;-76
2021/07/20 11:26:09;;;;;;;11.02;7.80;;;;;;;;;;5070324;28;20036;-76
2021/07/20 11:28:35;;;;;;;11.35;8.30;;;;;;;;;;5077539;28;20016;-76
2021/07/20 11:31:07;;;;;;;12.27;7.20;;;;;;;;;;5068174;28;20017;-80
2021/07/20 11:33:35;;;;;;;11.68;7.35;;;;;;;;;;5074213;28;20020;-82
2021/07/20 11:36:00;;;;;;;7.95;6.95;;;;;;;;;;5066977;28;20043;-83
2021/07/20 11:38:28;;;;;;;10.23;6.90;;;;;;;;;;5054694;28;20028;-83
2021/07/20 11:41:00;;;;;;;8.80;6.07;;;;;;;;;;5036976;28;20017;-84
2021/07/20 11:43:43;;;;;;;7.18;5.28;;;;;;;;;;5066246;28;20098;-84
2021/07/20 11:46:10;;;;;;;8.70;6.20;;;;;;;;;;5056745;28;20033;-70
2021/07/20 11:48:42;;;;;;;9.45;6.70;;;;;;;;;;5073572;28;20059;-71
2021/07/20 11:51:17;;;;;;;12.38;7.10;;;;;;;;;;5061956;28;20012;-70
2021/07/20 11:53:50;;;;;;;7.63;6.47;;;;;;;;;;5063296;28;20035;-71
2021/07/20 11:56:26;;;;;;;8.02;6.32;;;;;;;;;;5079991;28;20020;-71
2021/07/20 11:59:09;;;;;;;9.70;6.35;;;;;;;;;;5064106;28;20025;-70
2021/07/20 12:01:53;;;;;;;9.90;6.73;;;;;;;;;;5060067;28;20021;-71
2021/07/20 12:04:24;;;;;;;8.30;6.25;;;;;;;;;;5058702;28;20404;-70
2021/07/20 12:07:08;;;;;;;8.82;6.07;;;;;;;;;;5058977;28;20017;-71
2021/07/20 12:09:40;;;;;;;7.43;6.47;;;;;;;;;;5062214;28;20519;-71
2021/07/20 12:12:06;;;;;;;8.45;6.35;;;;;;;;;;5062457;28;20020;-71
2021/07/20 12:14:34;;;;;;;9.13;6.22;;;;;;;;;;5064924;28;20031;-70
2021/07/20 12:16:59;;;;;;;9.85;6.07;;;;;;;;;;5062891;28;20096;-71
2021/07/20 12:19:37;;;;;;;7.38;5.95;;;;;;;;;;5051960;28;20509;-71
2021/07/20 12:22:06;;;;;;;6.88;5.82;;;;;;;;;;5064914;28;20449;-71
2021/07/20 12:24:31;;;;;;;16.73;6.15;;;;;;;;;;5065388;28;20051;-70
2021/07/20 12:26:59;;;;;;;10.20;5.38;;;;;;;;;;5055540;28;20030;-70
2021/07/20 12:29:27;;;;;;;7.00;5.75;;;;;;;;;;5064623;28;20083;-70
2021/07/20 12:31:52;;;;;;;6.85;5.60;;;;;;;;;;5072229;28;20020;-71
2021/07/20 12:34:17;;;;;;;9.33;5.90;;;;;;;;;;5085633;28;20036;-70
2021/07/20 12:36:43;;;;;;;6.60;5.30;;;;;;;;;;5074180;28;20426;-70
2021/07/20 12:39:21;;;;;;;8.07;5.68;;;;;;;;;;5068236;28;20768;-70
2021/07/20 12:41:52;;;;;;;6.45;4.75;;;;;;;;;;5072905;28;20043;-70
2021/07/20 12:44:18;;;;;;;7.85;5.70;;;;;;;;;;5071291;28;20472;-70
2021/07/20 12:46:49;;;;;;;7.05;5.63;;;;;;;;;;5067944;28;20020;-70
2021/07/20 12:49:15;;;;;;;8.52;5.22;;;;;;;;;;5076777;28;20036;-71
2021/07/20 12:51:46;;;;;;;6.30;5.22;;;;;;;;;;5082782;28;20166;-71
2021/07/20 12:54:14;;;;;;;7.60;5.05;;;;;;;;;;5055715;28;20021;-71
2021/07/20 12:56:42;;;;;;;8.65;5.53;;;;;;;;;;5065616;28;20438;-71
2021/07/20 12:59:07;;;;;;;7.75;5.78;;;;;;;;;;5074193;28;20348;-72
2021/07/20 13:01:36;;;;;;;6.40;5.75;;;;;;;;;;5083045;28;20012;-70
2021/07/20 13:04:05;;;;;;;8.60;6.40;;;;;;;;;;5079817;28;20048;-71
2021/07/20 13:06:34;;;;;;;9.38;6.05;;;;;;;;;;5092400;28;20020;-71
2021/07/20 13:09:02;;;;;;;6.25;5.30;;;;;;;;;;5051017;28;20025;-72
2021/07/20 13:11:27;;;;;;;9.38;5.30;;;;;;;;;;5044524;28;20012;-72
2021/07/20 13:13:55;;;;;;;8.03;5.63;;;;;;;;;;5069866;28;20028;-71
2021/07/20 13:16:21;;;;;;;7.97;5.53;;;;;;;;;;5072686;28;20036;-70
2021/07/20 13:18:55;;;;;;;9.35;5.80;;;;;;;;;;5081072;28;20036;-71
2021/07/20 13:21:24;;;;;;;7.20;5.80;;;;;;;;;;5083659;28;20017;-72
2021/07/20 13:23:52;;;;;;;7.07;5.60;;;;;;;;;;5072939;28;20024;-69
2021/07/20 13:26:25;;;;;;;6.85;5.78;;;;;;;;;;5072873;28;20053;-73
2021/07/20 13:29:00;;;;;;;9.10;5.50;;;;;;;;;;5073819;28;20020;-73
2021/07/20 13:31:30;;;;;;;8.40;6.20;;;;;;;;;;5072898;28;20448;-74
2021/07/20 13:33:56;;;;;;;10.60;6.50;;;;;;;;;;5069210;28;20111;-73
2021/07/20 13:36:22;;;;;;;9.10;5.78;;;;;;;;;;5064579;28;20103;-75
2021/07/20 13:38:48;;;;;;;13.55;6.22;;;;;;;;;;5066330;28;20039;-76
2021/07/20 13:41:13;;;;;;;7.80;5.85;;;;;;;;;;5068080;28;20025;-77
2021/07/20 13:43:41;;;;;;;6.53;5.55;;;;;;;;;;5058730;28;20333;-76
2021/07/20 13:46:07;;;;;;;10.80;7.05;;;;;;;;;;5076685;28;20024;-77
2021/07/20 13:48:35;;;;;;;9.30;6.53;;;;;;;;;;5084174;28;20461;-78
2021/07/20 13:51:01;;;;;;;8.05;6.30;;;;;;;;;;5081851;28;20081;-77
2021/07/20 13:53:30;;;;;;;8.38;6.32;;;;;;;;;;5064892;28;20157;-77
2021/07/20 13:56:17;;;;;;;12.50;6.50;;;;;;;;;;5084670;28;20097;-77
2021/07/20 13:58:46;;;;;;;8.82;6.32;;;;;;;;;;5068749;28;20313;-77
2021/07/20 14:01:12;;;;;;;10.93;6.93;;;;;;;;;;5068299;28;20401;-77
2021/07/20 14:03:38;;;;;;;7.63;6.20;;;;;;;;;;5084838;28;20064;-76
2021/07/20 14:06:03;;;;;;;11.27;6.63;;;;;;;;;;5085255;28;20024;-77
2021/07/20 14:08:30;;;;;;;10.10;7.20;;;;;;;;;;5082940;28;20020;-77
2021/07/20 14:10:57;;;;;;;10.32;6.70;;;;;;;;;;5086245;28;20008;-77
2021/07/20 14:13:24;;;;;;;9.02;6.93;;;;;;;;;;5082705;28;20016;-77
2021/07/20 14:15:49;;;;;;;12.57;6.63;;;;;;;;;;5081814;28;20020;-77
2021/07/20 14:18:14;;;;;;;10.13;6.37;;;;;;;;;;5076464;28;20032;-77
2021/07/20 14:20:40;;;;;;;8.05;6.10;;;;;;;;;;5075663;28;20267;-77
2021/07/20 14:23:05;;;;;;;8.53;6.07;;;;;;;;;;5070739;28;20531;-78
2021/07/20 14:25:46;;;;;;;8.73;6.13;;;;;;;;;;5076181;28;20373;-77
2021/07/20 14:28:14;;;;;;;8.77;6.45;;;;;;;;;;5085149;28;20009;-80
2021/07/20 14:30:59;;;;;;;7.93;5.95;;;;;;;;;;5082706;28;20008;-78
2021/07/20 14:33:25;;;;;;;7.57;5.45;;;;;;;;;;5080445;28;20055;-75
2021/07/20 14:35:50;;;;;;;8.07;6.15;;;;;;;;;;5056458;28;20021;-73